Terminal Aerodrome Forecast
Issued by NWS

Home | Current Version | Previous Version | Text Only | Print | Product List | Glossary On
Versions: 1 2 3 4 5 6 7 8 9 10 11 12 13 14 15 16 17
000
FTUS45 KRIW 202337
TAFPNA
TAF
KPNA 202337Z 2100/2124 VRB03KT P6SM SCT040 BKN100
     FM210900 31004KT P6SM SCT025 OVC040
     FM211500 30004KT P6SM SCT030 BKN150
     FM212100 30009KT P6SM VCSH SCT030 OVC080
      AMD LTD TO CLD VIS AND WIND=

USA.gov is the U.S. government's official web portal to all federal, state and local government web resources and services.